Airfield :
LOGIN :

Register | Disclaimer

   EN    FR    IT 

 










Legend :    VFR   Marginal VFR   IFR   Intensive IFR   Very Intensive IFR
Visi :
Ceiling :
>= 8 km
>= 3000ft
5 to 8 km
1000 to 3000 ft
1500m to 5 km
500 to 1000 ft
800 to 1500m
200 to 500 ft
< 800m
< 200 ft
Symbols :   Thunderstorms  Fog  Heavy snow  Heavy precipitations  Wind > 20 kt
SIGMETs :     Misc.  Thunderstorms  Icing  Turbulence  Mountain Waves  Volcanic Ashes







- Airport Elevation : 1187 ft


LIBV - Gioia del Colle Bari

CURRENT METAR :
  • 222355Z 15024KT 4000 BR SCT005 BKN009 12/12 Q1010 RMK OVC VIS MIN 4000 WIND THR32 15023KT WIND THR14 15023KT GRN

EXPIRED METARs :
  • 222255Z 15022KT 4000 BR SCT005 BKN009 12/11 Q1011 RMK OVC VIS MIN 4000 WIND THR32 16021KT WIND THR14 16021KT GRN
  • 222155Z 15024KT 4000 -RA BR SCT005 BKN010 12/11 Q1011 RMK OVC VIS MIN 4000 WIND THR32 16023KT WIND THR14 16023KT GRN

TAF TAF LIBV
Valid from the 23 at 00:00 until the 23 at 09:00 UTC


222300Z 2300/2309 15020G30KT 5000 BR BKN010
TEMPO 2300/2304 15025G35KT 3000 BR BKN005
No reported NOTAMs for that airfield.
2 SIGMETs reported for the Brindisi FIR (LIBB) :
 
Severe turbulence
LIBB SIGMET 5 VALID 230005/230405 LIIB
LIBB BRINDISI FIR SEV TURB FCST S OF LINE N4111 E01443 - N4140 E01817 SFC/FL120 STNR WKN=
Severe turbulence
LIBB SIGMET 4 VALID 222005/230005 LIIB
LIBB BRINDISI FIR SEV TURB FCST WI N4252 E01529 - N4157 E01357 - N4125 E01427 - N4111 E01507 - N3912 E01621 - N4035 E01859 - N4106 E01850 - N4252 E01529 SFC/FL120 STNR NC=



MET'MAP, your aeronautical weather chart ! - Copyright ORBIFLY December 2007 - Disclaimer

ORBIFLY MET'MAP TEAM :

Programming & Development : Alexandra Zaïnal
Concept & Development : Baudouin d'Aumeries
Co-Development & Prog : Marc-Olivier Méhu
Technical & hardware support : Manuel Goepfert

Contact : metmap@orbifly.com




SOURCES & CREDITS :

   NOAA